Terminal Aerodrome Forecast
Issued by NWS Missoula, MT

Current Version | Previous Version | Text Only | Print | Product List | Glossary On
Versions: 1 2 3 4 5 6 7 8 9 10 11 12 13 14 15 16 17 18 19
000
FTUS45 KMSO 021120
TAFGPI
TAF
KGPI 021120Z 0212/0312 16008KT P6SM VCSH BKN035 OVC050
     FM021500 02009KT P6SM OVC050
     FM022000 33007KT P6SM BKN100=

USA.gov is the U.S. government's official web portal to all federal, state and local government web resources and services.